createdAt,value
2017-07-28T00:00:15.216Z,0.00
2017-07-28T00:01:11.872Z,0.00
2017-07-28T00:02:08.255Z,0.00
2017-07-28T00:03:04.615Z,0.00
2017-07-28T00:04:00.903Z,0.00
2017-07-28T00:04:57.216Z,0.00
2017-07-28T00:05:53.732Z,0.00
2017-07-28T00:06:50.898Z,0.00
2017-07-28T00:07:48.118Z,0.00
2017-07-28T00:08:44.543Z,0.00
2017-07-28T00:09:40.824Z,0.00
2017-07-28T00:10:38.084Z,0.00
2017-07-28T00:11:34.415Z,0.00
2017-07-28T00:12:31.639Z,0.00
2017-07-28T00:13:28.259Z,0.00
2017-07-28T00:14:24.676Z,0.00
2017-07-28T00:15:21.018Z,0.00
2017-07-28T00:16:17.296Z,0.00
2017-07-28T00:17:14.519Z,0.00
2017-07-28T00:18:10.923Z,0.00
2017-07-28T00:19:07.375Z,0.00
2017-07-28T00:20:03.794Z,0.00
2017-07-28T00:21:00.116Z,0.00
2017-07-28T00:21:57.455Z,0.00
2017-07-28T00:22:54.779Z,0.00
2017-07-28T00:23:52.575Z,0.00
2017-07-28T00:24:49.027Z,0.00
2017-07-28T00:25:46.616Z,0.00
2017-07-28T00:26:43.977Z,0.00
2017-07-28T00:27:44.888Z,0.00
2017-07-28T00:37:52.731Z,0.00
2017-07-28T00:38:49.163Z,0.00
2017-07-28T00:39:45.506Z,0.00
2017-07-28T00:40:41.827Z,0.00
2017-07-28T00:41:38.147Z,0.00
2017-07-28T00:42:34.485Z,0.00
2017-07-28T00:43:31.738Z,0.00
2017-07-28T00:44:28.060Z,0.00
2017-07-28T00:45:25.219Z,0.00
2017-07-28T00:46:22.492Z,0.00
2017-07-28T00:47:19.916Z,0.00
2017-07-28T00:48:16.419Z,0.00
2017-07-28T00:49:12.723Z,0.00
2017-07-28T00:50:09.096Z,0.00
2017-07-28T00:51:07.415Z,0.00
2017-07-28T00:52:03.756Z,0.00
2017-07-28T00:53:00.040Z,0.00
2017-07-28T01:14:58.130Z,0.00
2017-07-28T01:15:54.427Z,0.00
2017-07-28T01:16:50.840Z,0.00
2017-07-28T01:17:47.327Z,0.00
2017-07-28T01:18:43.599Z,0.00
2017-07-28T01:19:41.116Z,0.00
2017-07-28T01:20:37.683Z,0.00
2017-07-28T01:21:33.984Z,0.00
2017-07-28T01:22:30.366Z,0.00
2017-07-28T01:23:40.778Z,0.00
2017-07-28T01:24:37.087Z,0.00
2017-07-28T01:25:33.827Z,0.00
2017-07-28T01:26:30.279Z,0.00
2017-07-28T01:27:26.628Z,0.00
2017-07-28T01:28:23.052Z,0.00
2017-07-28T01:29:19.416Z,0.00
2017-07-28T01:30:15.787Z,0.00
2017-07-28T01:31:12.120Z,0.00
2017-07-28T01:32:08.731Z,0.00
2017-07-28T01:33:05.051Z,0.00
2017-07-28T01:34:03.476Z,0.00
2017-07-28T01:34:59.851Z,0.00
2017-07-28T01:35:56.174Z,0.00
2017-07-28T01:36:52.466Z,0.00
2017-07-28T01:37:48.899Z,0.00
2017-07-28T01:38:46.226Z,0.00
2017-07-28T01:39:42.541Z,0.00
2017-07-28T01:40:38.902Z,0.00
2017-07-28T01:41:40.263Z,0.00
2017-07-28T01:46:06.784Z,0.00
2017-07-28T01:47:04.046Z,0.00
2017-07-28T01:48:00.512Z,0.00
2017-07-28T01:48:57.900Z,0.00
2017-07-28T01:49:54.468Z,0.00
2017-07-28T01:50:52.849Z,0.00
2017-07-28T01:51:50.284Z,0.00
2017-07-28T01:52:47.756Z,0.00
2017-07-28T01:53:44.336Z,0.00
2017-07-28T01:54:41.734Z,0.00
2017-07-28T01:55:38.042Z,0.00
2017-07-28T01:56:34.486Z,0.00
2017-07-28T01:57:31.663Z,0.00
2017-07-28T01:58:28.038Z,0.00
2017-07-28T01:59:24.487Z,0.00
2017-07-28T02:00:21.047Z,0.00
2017-07-28T02:01:17.468Z,0.00
2017-07-28T02:02:14.148Z,0.00
2017-07-28T02:03:10.443Z,0.00
2017-07-28T02:04:06.795Z,0.00
2017-07-28T02:05:03.115Z,0.00
2017-07-28T02:07:10.415Z,0.00
2017-07-28T02:08:07.731Z,0.00
2017-07-28T02:09:05.058Z,0.00
2017-07-28T02:10:01.416Z,0.00
2017-07-28T02:10:58.645Z,0.00
2017-07-28T02:11:59.129Z,0.00
2017-07-28T02:12:56.579Z,0.00
2017-07-28T02:13:54.191Z,0.00
2017-07-28T02:14:50.607Z,0.00
2017-07-28T02:17:03.379Z,0.00
2017-07-28T02:18:00.748Z,0.00
2017-07-28T02:18:57.163Z,0.00
2017-07-28T02:21:11.507Z,0.00
2017-07-28T02:22:12.041Z,0.00
2017-07-28T02:23:11.271Z,0.00
2017-07-28T02:24:09.743Z,0.00
2017-07-28T02:25:06.182Z,0.00
2017-07-28T02:27:13.451Z,0.00
2017-07-28T02:28:10.821Z,0.00
2017-07-28T02:29:09.142Z,0.00
2017-07-28T02:30:08.702Z,0.00
2017-07-28T02:31:06.627Z,0.00
2017-07-28T02:32:03.952Z,0.00
2017-07-28T02:33:00.426Z,0.00
2017-07-28T02:33:57.955Z,0.00
2017-07-28T02:34:54.375Z,0.00
2017-07-28T02:35:56.792Z,0.00
2017-07-28T02:36:53.265Z,0.00
2017-07-28T02:37:51.591Z,0.00
2017-07-28T02:38:48.016Z,0.00
2017-07-28T02:39:45.404Z,0.00
2017-07-28T02:40:42.235Z,0.00
2017-07-28T02:41:38.584Z,0.00
2017-07-28T02:42:35.143Z,0.00
2017-07-28T02:43:31.888Z,0.00
2017-07-28T02:44:28.325Z,0.00
2017-07-28T02:45:26.299Z,0.00
2017-07-28T02:46:27.424Z,0.00
2017-07-28T02:47:24.728Z,0.00
2017-07-28T02:48:21.316Z,0.00
2017-07-28T02:49:18.039Z,0.00
2017-07-28T02:50:14.712Z,0.00
2017-07-28T02:51:11.044Z,0.00
2017-07-28T02:52:07.428Z,0.00
2017-07-28T02:53:05.600Z,0.00
2017-07-28T02:54:03.972Z,0.00
2017-07-28T02:55:00.583Z,0.00
2017-07-28T02:55:58.917Z,0.00
2017-07-28T02:56:55.703Z,0.00
2017-07-28T02:57:53.540Z,0.00
2017-07-28T02:58:50.899Z,0.00
2017-07-28T02:59:48.141Z,0.00
2017-07-28T03:00:46.434Z,0.00
2017-07-28T03:01:43.368Z,0.00
2017-07-28T03:07:20.356Z,0.00
2017-07-28T03:08:17.348Z,0.00
2017-07-28T03:09:18.590Z,0.00
2017-07-28T03:10:22.863Z,0.00
2017-07-28T03:11:25.464Z,0.00
2017-07-28T03:12:22.555Z,0.00
2017-07-28T03:13:21.931Z,0.00
2017-07-28T03:14:21.505Z,0.00
2017-07-28T03:22:26.359Z,1.00
2017-07-28T03:23:30.117Z,1.00
2017-07-28T03:25:41.949Z,1.00
2017-07-28T03:26:38.774Z,1.00
2017-07-28T03:27:39.630Z,1.00
2017-07-28T03:28:42.179Z,1.00
2017-07-28T03:29:39.631Z,1.00
2017-07-28T03:35:44.596Z,3.00
2017-07-28T03:38:00.163Z,4.00
2017-07-28T03:40:35.974Z,6.00
2017-07-28T03:50:24.264Z,14.00
2017-07-28T03:58:40.936Z,25.00
2017-07-28T04:09:43.834Z,42.00
2017-07-28T04:11:05.704Z,44.00
2017-07-28T04:50:39.502Z,128.00
2017-07-28T04:51:49.199Z,129.00
2017-07-28T04:52:51.160Z,129.00
2017-07-28T05:01:18.652Z,151.00
2017-07-28T05:02:21.592Z,151.00
2017-07-28T05:10:59.801Z,166.00
2017-07-28T05:11:58.168Z,168.00
2017-07-28T05:14:11.520Z,174.00
2017-07-28T05:27:11.152Z,199.00
2017-07-28T05:37:03.851Z,217.00
2017-07-28T05:40:42.263Z,197.00
2017-07-28T05:50:25.703Z,155.00
2017-07-28T05:56:38.474Z,149.00
2017-07-28T06:03:56.865Z,176.00
2017-07-28T06:04:58.660Z,187.00
2017-07-28T06:13:37.750Z,168.00
2017-07-28T06:14:35.611Z,170.00
2017-07-28T06:15:38.471Z,180.00
2017-07-28T06:19:03.840Z,210.00
2017-07-28T06:26:25.587Z,184.00
2017-07-28T06:31:14.116Z,235.00
2017-07-28T06:44:42.276Z,225.00
2017-07-28T06:48:06.899Z,239.00
2017-07-28T06:49:05.492Z,322.00
2017-07-28T06:51:27.121Z,369.00
2017-07-28T06:52:23.939Z,237.00
2017-07-28T06:53:26.260Z,204.00
2017-07-28T06:55:34.065Z,203.00
2017-07-28T06:56:31.609Z,188.00
2017-07-28T06:57:28.310Z,188.00
2017-07-28T06:58:25.333Z,189.00
2017-07-28T07:00:42.298Z,197.00
2017-07-28T07:01:39.270Z,195.00
2017-07-28T07:02:36.023Z,195.00
2017-07-28T07:03:32.978Z,198.00
2017-07-28T07:04:31.399Z,191.00
2017-07-28T07:05:29.865Z,194.00
2017-07-28T07:06:27.291Z,194.00
2017-07-28T07:07:23.572Z,193.00
2017-07-28T07:08:19.834Z,194.00
2017-07-28T07:09:16.087Z,191.00
2017-07-28T07:10:12.329Z,195.00
2017-07-28T07:11:08.590Z,199.00
2017-07-28T07:12:04.888Z,199.00
2017-07-28T07:13:01.150Z,202.00
2017-07-28T07:13:57.405Z,196.00
2017-07-28T07:14:53.650Z,194.00
2017-07-28T07:15:49.889Z,196.00
2017-07-28T07:16:46.127Z,198.00
2017-07-28T07:17:42.378Z,200.00
2017-07-28T07:18:38.639Z,205.00
2017-07-28T07:19:34.881Z,205.00
2017-07-28T07:20:31.134Z,216.00
2017-07-28T07:21:27.392Z,226.00
2017-07-28T07:22:23.639Z,236.00
2017-07-28T07:23:19.894Z,236.00
2017-07-28T07:24:16.151Z,228.00
2017-07-28T07:25:12.408Z,221.00
2017-07-28T07:27:12.943Z,214.00
2017-07-28T07:28:09.351Z,214.00
2017-07-28T07:29:05.623Z,219.00
2017-07-28T07:30:01.866Z,240.00
2017-07-28T07:30:58.114Z,282.00
2017-07-28T07:31:54.370Z,359.00
2017-07-28T07:32:50.622Z,465.00
2017-07-28T07:33:46.886Z,562.00
2017-07-28T07:34:44.040Z,623.00
2017-07-28T07:35:40.279Z,681.00
2017-07-28T07:36:36.538Z,681.00
2017-07-28T07:37:32.786Z,685.00
2017-07-28T07:38:29.066Z,696.00
2017-07-28T07:39:25.357Z,718.00
2017-07-28T07:40:21.589Z,726.00
2017-07-28T07:41:17.835Z,758.00
2017-07-28T07:42:14.079Z,789.00
2017-07-28T07:43:10.318Z,742.00
2017-07-28T07:44:06.571Z,628.00
2017-07-28T07:45:02.832Z,610.00
2017-07-28T07:45:59.087Z,747.00
2017-07-28T07:46:55.329Z,810.00
2017-07-28T07:47:51.584Z,806.00
2017-07-28T07:48:47.845Z,825.00
2017-07-28T07:49:44.081Z,840.00
2017-07-28T07:50:40.340Z,846.00
2017-07-28T07:51:36.590Z,855.00
2017-07-28T07:52:32.835Z,844.00
2017-07-28T07:53:29.099Z,787.00
2017-07-28T07:54:25.378Z,809.00
2017-07-28T07:55:21.642Z,824.00
2017-07-28T07:56:17.917Z,840.00
2017-07-28T07:57:14.522Z,830.00
2017-07-28T07:58:10.759Z,823.00
2017-07-28T07:59:07.020Z,835.00
2017-07-28T08:00:03.271Z,847.00
2017-07-28T08:00:59.514Z,855.00
2017-07-28T08:01:55.754Z,859.00
2017-07-28T08:02:52.006Z,882.00
2017-07-28T08:03:48.279Z,899.00
2017-07-28T08:04:44.557Z,896.00
2017-07-28T08:05:40.808Z,881.00
2017-07-28T08:06:37.050Z,879.00
2017-07-28T08:07:33.305Z,879.00
2017-07-28T08:08:29.546Z,884.00
2017-07-28T08:09:25.807Z,890.00
2017-07-28T08:10:22.059Z,899.00
2017-07-28T08:11:18.302Z,917.00
2017-07-28T08:12:14.542Z,944.00
2017-07-28T08:13:10.797Z,959.00
2017-07-28T08:14:07.051Z,961.00
2017-07-28T08:15:03.317Z,959.00
2017-07-28T08:15:59.558Z,969.00
2017-07-28T08:16:55.809Z,992.00
2017-07-28T08:17:52.047Z,1004.00
2017-07-28T08:18:48.291Z,1012.00
2017-07-28T08:19:44.567Z,1003.00
2017-07-28T08:20:40.810Z,996.00
2017-07-28T08:21:37.079Z,971.00
2017-07-28T08:22:33.322Z,955.00
2017-07-28T08:23:29.554Z,952.00
2017-07-28T08:24:25.794Z,962.00
2017-07-28T08:25:22.058Z,972.00
2017-07-28T08:26:18.286Z,986.00
2017-07-28T08:27:14.531Z,1006.00
2017-07-28T08:28:10.778Z,1015.00
2017-07-28T08:29:07.014Z,1016.00
2017-07-28T08:30:03.284Z,1017.00
2017-07-28T08:30:59.526Z,1021.00
2017-07-28T08:31:55.763Z,1014.00
2017-07-28T08:32:52.002Z,1005.00
2017-07-28T08:33:48.234Z,1010.00
2017-07-28T08:34:44.490Z,1026.00
2017-07-28T08:35:40.741Z,1039.00
2017-07-28T08:36:36.987Z,1038.00
2017-07-28T08:37:33.230Z,1002.00
2017-07-28T08:38:29.470Z,1004.00
2017-07-28T08:39:25.938Z,1040.00
2017-07-28T08:40:22.214Z,1045.00
2017-07-28T08:41:18.459Z,1277.00
2017-07-28T08:42:14.694Z,1099.00
2017-07-28T08:43:10.923Z,1238.00
2017-07-28T08:44:08.129Z,1166.00
2017-07-28T08:45:04.371Z,1173.00
2017-07-28T08:46:00.643Z,1084.00
2017-07-28T08:46:56.885Z,1004.00
2017-07-28T08:47:53.126Z,1005.00
2017-07-28T08:48:49.358Z,972.00
2017-07-28T08:49:45.599Z,1057.00
2017-07-28T08:50:41.862Z,1091.00
2017-07-28T08:51:38.101Z,1057.00
2017-07-28T08:52:34.330Z,1126.00
2017-07-28T08:53:30.570Z,1212.00
2017-07-28T08:54:26.814Z,1235.00
2017-07-28T08:55:23.062Z,1232.00
2017-07-28T08:56:19.322Z,1208.00
2017-07-28T08:57:15.550Z,1212.00
2017-07-28T08:58:11.782Z,1221.00
2017-07-28T08:59:08.019Z,1202.00
2017-07-28T09:00:04.272Z,1189.00
2017-07-28T09:01:00.527Z,1190.00
2017-07-28T09:01:56.776Z,1207.00
2017-07-28T09:02:53.024Z,1268.00
2017-07-28T09:03:50.165Z,1187.00
2017-07-28T09:04:46.408Z,1155.00
2017-07-28T09:05:42.638Z,1226.00
2017-07-28T09:06:38.908Z,1282.00
2017-07-28T09:07:35.163Z,1335.00
2017-07-28T09:08:31.407Z,1322.00
2017-07-28T09:09:27.662Z,1380.00
2017-07-28T09:10:23.907Z,1537.00
2017-07-28T09:11:20.157Z,1528.00
2017-07-28T09:12:16.409Z,1547.00
2017-07-28T09:13:12.658Z,1700.00
2017-07-28T09:14:08.984Z,2148.00
2017-07-28T09:15:05.200Z,1604.00
2017-07-28T09:16:03.897Z,2030.00
2017-07-28T09:17:00.174Z,1971.00
2017-07-28T09:17:56.411Z,2306.00
2017-07-28T09:18:52.653Z,2623.00
2017-07-28T09:19:48.906Z,3489.00
2017-07-28T09:20:45.146Z,2851.00
2017-07-28T09:21:41.386Z,3279.00
2017-07-28T09:22:37.619Z,2828.00
2017-07-28T09:23:33.859Z,1935.00
2017-07-28T09:24:30.133Z,2240.00
2017-07-28T09:25:26.375Z,2476.00
2017-07-28T09:26:22.645Z,4585.00
2017-07-28T09:27:18.882Z,2917.00
2017-07-28T09:28:15.130Z,2825.00
2017-07-28T09:29:11.374Z,2845.00
2017-07-28T09:30:07.630Z,5063.00
2017-07-28T09:31:03.863Z,1913.00
2017-07-28T09:32:00.861Z,2169.00
2017-07-28T09:32:57.113Z,2043.00
2017-07-28T09:33:53.358Z,1221.00
2017-07-28T09:34:49.594Z,992.00
2017-07-28T09:35:45.822Z,1087.00
2017-07-28T09:36:42.063Z,1208.00
2017-07-28T09:37:38.376Z,1939.00
2017-07-28T09:38:34.630Z,1490.00
2017-07-28T09:39:30.871Z,1483.00
2017-07-28T09:40:27.112Z,2540.00
2017-07-28T09:41:23.351Z,1929.00
2017-07-28T09:42:19.607Z,3444.00
2017-07-28T09:43:15.842Z,2737.00
2017-07-28T09:44:12.083Z,1983.00
2017-07-28T09:45:08.335Z,2338.00
2017-07-28T09:46:04.573Z,2008.00
2017-07-28T09:47:00.818Z,1851.00
2017-07-28T09:47:57.086Z,2907.00
2017-07-28T09:48:53.359Z,2290.00
2017-07-28T09:49:49.625Z,1284.00
2017-07-28T09:50:45.890Z,1053.00
2017-07-28T09:51:42.139Z,1143.00
2017-07-28T09:52:38.393Z,3650.00
2017-07-28T09:53:34.630Z,2062.00
2017-07-28T09:54:30.871Z,3571.00
2017-07-28T09:55:27.105Z,4096.00
2017-07-28T09:56:34.814Z,1217.00
2017-07-28T09:57:32.640Z,1238.00
2017-07-28T09:58:29.408Z,1233.00
2017-07-28T09:59:30.723Z,1097.00
2017-07-28T10:00:27.634Z,1077.00
2017-07-28T10:01:24.195Z,1071.00
2017-07-28T10:02:20.451Z,1056.00
2017-07-28T10:03:16.710Z,1068.00
2017-07-28T10:04:12.934Z,1431.00
2017-07-28T10:05:09.183Z,1170.00
2017-07-28T10:06:05.432Z,1387.00
2017-07-28T10:07:01.683Z,2462.00
2017-07-28T10:07:57.946Z,2101.00
2017-07-28T10:08:54.195Z,2099.00
2017-07-28T10:09:50.439Z,2196.00
2017-07-28T10:10:46.679Z,2000.00
2017-07-28T10:11:42.930Z,2130.00
2017-07-28T10:12:39.174Z,1763.00
2017-07-28T10:13:35.435Z,2711.00
2017-07-28T10:14:31.678Z,2509.00
2017-07-28T10:15:27.926Z,2862.00
2017-07-28T10:16:24.167Z,2023.00
2017-07-28T10:17:20.415Z,3264.00
2017-07-28T10:18:17.457Z,1190.00
2017-07-28T10:22:33.911Z,1471.00
2017-07-28T10:23:30.173Z,1288.00
2017-07-28T10:24:26.510Z,806.00
2017-07-28T10:25:22.747Z,580.00
2017-07-28T10:26:18.989Z,613.00
2017-07-28T10:27:15.227Z,920.00
2017-07-28T10:28:11.465Z,719.00
2017-07-28T10:29:07.705Z,580.00
2017-07-28T10:30:03.940Z,463.00
2017-07-28T10:31:00.190Z,410.00
2017-07-28T10:31:56.427Z,356.00
2017-07-28T10:32:52.657Z,360.00
2017-07-28T10:33:48.919Z,398.00
2017-07-28T10:34:45.158Z,504.00
2017-07-28T10:35:41.394Z,570.00
2017-07-28T10:36:37.647Z,693.00
2017-07-28T10:37:33.883Z,919.00
2017-07-28T10:38:30.149Z,1273.00
2017-07-28T10:39:26.412Z,1604.00
2017-07-28T10:40:22.653Z,1537.00
2017-07-28T10:41:18.898Z,3602.00
2017-07-28T10:42:15.141Z,1952.00
2017-07-28T10:43:11.379Z,1091.00
2017-07-28T10:44:07.638Z,896.00
2017-07-28T10:45:03.894Z,861.00
2017-07-28T10:46:00.135Z,853.00
2017-07-28T10:46:56.372Z,865.00
2017-07-28T10:47:52.610Z,1001.00
2017-07-28T10:48:48.850Z,1326.00
2017-07-28T10:49:45.114Z,3159.00
2017-07-28T10:50:41.351Z,2222.00
2017-07-28T10:51:37.582Z,1226.00
2017-07-28T10:52:33.823Z,938.00
2017-07-28T10:53:30.071Z,817.00
2017-07-28T10:54:26.338Z,779.00
2017-07-28T10:55:22.599Z,792.00
2017-07-28T10:56:18.842Z,938.00
2017-07-28T10:57:15.078Z,1079.00
2017-07-28T10:58:11.314Z,1409.00
2017-07-28T10:59:07.550Z,1314.00
2017-07-28T11:00:03.814Z,1014.00
2017-07-28T11:01:00.055Z,945.00
2017-07-28T11:01:56.306Z,803.00
2017-07-28T11:02:52.563Z,699.00
2017-07-28T11:03:49.275Z,681.00
2017-07-28T11:04:45.551Z,779.00
2017-07-28T11:05:41.798Z,890.00
2017-07-28T11:06:38.042Z,1357.00
2017-07-28T11:07:34.309Z,1568.00
2017-07-28T11:08:30.558Z,1194.00
2017-07-28T11:09:26.807Z,951.00
2017-07-28T11:10:23.066Z,754.00
2017-07-28T11:11:19.310Z,613.00
2017-07-28T11:12:15.560Z,523.00
2017-07-28T11:13:11.799Z,508.00
2017-07-28T11:14:08.053Z,547.00
2017-07-28T11:15:04.320Z,607.00
2017-07-28T11:16:00.562Z,696.00
2017-07-28T11:16:56.803Z,982.00
2017-07-28T11:17:53.054Z,988.00
2017-07-28T11:18:49.331Z,1053.00
2017-07-28T11:19:45.598Z,1176.00
2017-07-28T11:20:41.872Z,2355.00
2017-07-28T11:21:38.130Z,1583.00
2017-07-28T11:22:34.387Z,2178.00
2017-07-28T11:23:30.633Z,1394.00
2017-07-28T11:24:26.889Z,1489.00
2017-07-28T11:25:23.202Z,1456.00
2017-07-28T11:26:19.439Z,1542.00
2017-07-28T11:27:15.683Z,1637.00
2017-07-28T11:28:11.925Z,2463.00
2017-07-28T11:29:08.176Z,1603.00
2017-07-28T11:30:04.422Z,1512.00
2017-07-28T11:31:00.695Z,1248.00
2017-07-28T11:31:56.948Z,1033.00
2017-07-28T11:32:53.186Z,903.00
2017-07-28T11:33:49.430Z,922.00
2017-07-28T11:34:45.691Z,1171.00
2017-07-28T11:35:42.024Z,1207.00
2017-07-28T11:36:38.268Z,875.00
2017-07-28T11:37:34.522Z,1015.00
2017-07-28T11:38:30.763Z,915.00
2017-07-28T11:39:27.015Z,821.00
2017-07-28T11:40:23.304Z,690.00
2017-07-28T11:41:19.563Z,594.00
2017-07-28T11:42:15.865Z,573.00
2017-07-28T11:43:12.190Z,544.00
2017-07-28T11:44:08.458Z,585.00
2017-07-28T11:45:04.733Z,742.00
2017-07-28T11:46:00.974Z,996.00
2017-07-28T11:46:57.215Z,1857.00
2017-07-28T11:47:53.468Z,2771.00
2017-07-28T11:48:49.723Z,2174.00
2017-07-28T11:49:46.026Z,2466.00
2017-07-28T11:50:42.294Z,1367.00
2017-07-28T11:51:38.558Z,1259.00
2017-07-28T11:52:34.803Z,3101.00
2017-07-28T11:53:31.054Z,3314.00
2017-07-28T11:54:27.306Z,3201.00
2017-07-28T11:55:23.538Z,1028.00
2017-07-28T11:56:19.804Z,978.00
2017-07-28T11:57:16.054Z,1050.00
2017-07-28T11:58:12.299Z,1021.00
2017-07-28T11:59:08.544Z,970.00
2017-07-28T12:00:04.798Z,940.00
2017-07-28T12:01:01.070Z,837.00
2017-07-28T12:01:57.322Z,773.00
2017-07-28T12:02:53.567Z,684.00
2017-07-28T12:03:49.799Z,668.00
2017-07-28T12:04:46.049Z,798.00
2017-07-28T12:05:42.351Z,1043.00
2017-07-28T12:06:38.627Z,999.00
2017-07-28T12:07:34.928Z,1271.00
2017-07-28T12:08:31.226Z,3291.00
2017-07-28T12:09:27.471Z,3122.00
2017-07-28T12:10:23.759Z,3062.00
2017-07-28T12:11:20.089Z,2973.00
2017-07-28T12:12:16.466Z,2984.00
2017-07-28T12:13:12.986Z,2897.00
2017-07-28T12:14:09.286Z,2192.00
2017-07-28T12:15:05.587Z,1293.00
2017-07-28T12:16:01.852Z,1273.00
2017-07-28T12:16:58.126Z,1889.00
2017-07-28T12:17:54.361Z,1968.00
2017-07-28T12:18:50.619Z,2218.00
2017-07-28T12:19:46.874Z,1422.00
2017-07-28T12:20:43.123Z,1723.00
2017-07-28T12:21:39.399Z,2587.00
2017-07-28T12:22:35.634Z,1433.00
2017-07-28T12:23:31.890Z,1383.00
2017-07-28T12:24:28.135Z,1126.00
2017-07-28T12:25:24.375Z,1033.00
2017-07-28T12:26:20.614Z,989.00
2017-07-28T12:27:16.888Z,1012.00
2017-07-28T12:28:13.191Z,1081.00
2017-07-28T12:29:09.453Z,2027.00
2017-07-28T12:30:05.707Z,2660.00
2017-07-28T12:31:01.952Z,2815.00
2017-07-28T12:31:58.227Z,3037.00
2017-07-28T12:32:54.493Z,2746.00
2017-07-28T12:33:50.773Z,1621.00
2017-07-28T12:34:47.026Z,1756.00
2017-07-28T12:35:43.274Z,1537.00
2017-07-28T12:36:39.519Z,1519.00
2017-07-28T12:37:35.778Z,1683.00
2017-07-28T12:38:32.062Z,1721.00
2017-07-28T12:39:28.342Z,2222.00
2017-07-28T12:40:24.671Z,3005.00
2017-07-28T12:41:20.919Z,3007.00
2017-07-28T12:42:17.194Z,2878.00
2017-07-28T12:43:13.433Z,2922.00
2017-07-28T12:44:09.666Z,2788.00
2017-07-28T12:45:07.803Z,1789.00
2017-07-28T12:46:04.092Z,1567.00
2017-07-28T12:47:00.389Z,2906.00
2017-07-28T12:47:56.667Z,2728.00
2017-07-28T12:48:52.914Z,2825.00
2017-07-28T12:49:49.159Z,1025.00
2017-07-28T12:50:45.423Z,2840.00
2017-07-28T12:51:41.683Z,905.00
2017-07-28T12:52:37.942Z,886.00
2017-07-28T12:53:34.187Z,2917.00
2017-07-28T12:54:30.454Z,2341.00
2017-07-28T12:55:26.698Z,791.00
2017-07-28T12:56:22.954Z,2341.00
2017-07-28T12:57:19.195Z,666.00
2017-07-28T12:58:15.455Z,723.00
2017-07-28T12:59:11.698Z,590.00
2017-07-28T13:00:07.977Z,994.00
2017-07-28T13:01:04.207Z,653.00
2017-07-28T13:02:00.457Z,582.00
2017-07-28T13:02:56.723Z,604.00
2017-07-28T13:03:52.971Z,731.00
2017-07-28T13:04:49.215Z,817.00
2017-07-28T13:05:45.462Z,2197.00
2017-07-28T13:06:41.751Z,2697.00
2017-07-28T13:07:37.987Z,2677.00
2017-07-28T13:08:34.243Z,979.00
2017-07-28T13:09:30.479Z,732.00
2017-07-28T13:10:26.715Z,637.00
2017-07-28T13:11:22.971Z,559.00
2017-07-28T13:12:19.222Z,506.00
2017-07-28T13:13:15.603Z,467.00
2017-07-28T13:14:11.847Z,484.00
2017-07-28T13:15:08.086Z,580.00
2017-07-28T13:16:04.330Z,794.00
2017-07-28T13:17:00.586Z,2474.00
2017-07-28T13:17:56.852Z,2364.00
2017-07-28T13:18:53.112Z,2297.00
2017-07-28T13:19:49.367Z,2035.00
2017-07-28T13:20:45.745Z,2314.00
2017-07-28T13:21:41.987Z,2311.00
2017-07-28T13:22:38.235Z,1166.00
2017-07-28T13:23:34.503Z,2225.00
2017-07-28T13:24:30.806Z,2475.00
2017-07-28T13:25:27.085Z,2430.00
2017-07-28T13:26:23.400Z,2503.00
2017-07-28T13:27:19.693Z,2254.00
2017-07-28T13:28:15.942Z,2348.00
2017-07-28T13:29:12.204Z,1491.00
2017-07-28T13:30:08.438Z,984.00
2017-07-28T13:31:04.684Z,1035.00
2017-07-28T13:32:00.971Z,921.00
2017-07-28T13:32:57.222Z,1586.00
2017-07-28T13:33:54.511Z,2013.00
2017-07-28T13:34:50.819Z,1149.00
2017-07-28T13:35:47.090Z,2062.00
2017-07-28T13:36:43.390Z,2305.00
2017-07-28T13:37:39.673Z,2240.00
2017-07-28T13:38:36.018Z,2384.00
2017-07-28T13:39:32.283Z,2238.00
2017-07-28T13:40:28.573Z,2140.00
2017-07-28T13:41:24.866Z,2178.00
2017-07-28T13:42:21.162Z,2034.00
2017-07-28T13:43:17.406Z,1883.00
2017-07-28T13:44:13.733Z,1767.00
2017-07-28T13:45:09.987Z,1748.00
2017-07-28T13:46:06.434Z,1716.00
2017-07-28T13:47:07.395Z,1817.00
2017-07-28T13:48:04.638Z,932.00
2017-07-28T13:49:00.899Z,1716.00
2017-07-28T13:49:57.156Z,1588.00
2017-07-28T13:50:53.501Z,1553.00
2017-07-28T13:51:49.838Z,1624.00
2017-07-28T13:52:47.100Z,1276.00
2017-07-28T13:53:43.351Z,1388.00
2017-07-28T13:54:39.619Z,1371.00
2017-07-28T13:55:35.867Z,1406.00
2017-07-28T13:56:32.131Z,1426.00
2017-07-28T13:57:28.399Z,1368.00
2017-07-28T13:58:24.675Z,1342.00
2017-07-28T13:59:21.123Z,1319.00
2017-07-28T14:00:17.359Z,1277.00
2017-07-28T14:01:13.674Z,1412.00
2017-07-28T14:02:09.934Z,1610.00
2017-07-28T14:03:06.162Z,1365.00
2017-07-28T14:04:02.506Z,1630.00
2017-07-28T14:04:58.763Z,1574.00
2017-07-28T14:05:55.006Z,1094.00
2017-07-28T14:06:51.533Z,1041.00
2017-07-28T14:07:47.766Z,1613.00
2017-07-28T14:08:44.031Z,1497.00
2017-07-28T14:09:40.277Z,1512.00
2017-07-28T14:10:36.683Z,1415.00
2017-07-28T14:11:32.967Z,1053.00
2017-07-28T14:12:29.243Z,1426.00
2017-07-28T14:13:25.483Z,1575.00
2017-07-28T14:14:21.721Z,1588.00
2017-07-28T14:15:17.991Z,1140.00
2017-07-28T14:16:14.280Z,1109.00
2017-07-28T14:17:10.583Z,821.00
2017-07-28T14:18:06.834Z,821.00
2017-07-28T14:19:03.079Z,905.00
2017-07-28T14:19:59.318Z,1728.00
2017-07-28T14:20:56.585Z,1739.00
2017-07-28T14:21:53.755Z,1526.00
2017-07-28T14:22:49.995Z,1705.00
2017-07-28T14:23:46.262Z,1886.00
2017-07-28T14:24:42.503Z,1948.00
2017-07-28T14:25:38.766Z,2029.00
2017-07-28T14:26:34.998Z,1877.00
2017-07-28T14:27:31.668Z,925.00
2017-07-28T14:28:31.954Z,1873.00
2017-07-28T14:29:28.195Z,1672.00
2017-07-28T14:30:24.462Z,1666.00
2017-07-28T14:31:20.742Z,1717.00
2017-07-28T14:32:17.339Z,1772.00
2017-07-28T14:33:13.579Z,1860.00
2017-07-28T14:34:09.831Z,811.00
2017-07-28T14:35:06.082Z,769.00
2017-07-28T14:36:02.393Z,728.00
2017-07-28T14:36:58.683Z,708.00
2017-07-28T14:37:54.926Z,709.00
2017-07-28T14:38:52.183Z,1693.00
2017-07-28T14:39:48.435Z,1730.00
2017-07-28T14:40:44.683Z,1025.00
2017-07-28T14:41:40.974Z,800.00
2017-07-28T14:42:37.226Z,704.00
2017-07-28T14:43:33.474Z,596.00
2017-07-28T14:44:29.719Z,520.00
2017-07-28T14:45:25.975Z,495.00
2017-07-28T14:46:22.255Z,488.00
2017-07-28T14:47:19.103Z,471.00
2017-07-28T14:48:16.353Z,425.00
2017-07-28T14:49:12.718Z,424.00
2017-07-28T14:50:08.977Z,414.00
2017-07-28T14:51:05.306Z,403.00
2017-07-28T14:52:01.549Z,427.00
2017-07-28T14:52:57.808Z,482.00
2017-07-28T14:53:54.049Z,527.00
2017-07-28T14:54:50.289Z,550.00
2017-07-28T14:55:46.543Z,550.00
2017-07-28T14:56:42.823Z,543.00
2017-07-28T14:57:39.066Z,529.00
2017-07-28T14:58:35.322Z,529.00
2017-07-28T14:59:31.597Z,538.00
2017-07-28T15:00:27.855Z,637.00
2017-07-28T15:01:24.102Z,741.00
2017-07-28T15:02:20.358Z,663.00
2017-07-28T15:03:16.581Z,644.00
2017-07-28T15:04:12.832Z,662.00
2017-07-28T15:05:09.075Z,682.00
2017-07-28T15:06:05.334Z,696.00
2017-07-28T15:07:01.594Z,683.00
2017-07-28T15:07:57.850Z,653.00
2017-07-28T15:08:54.083Z,638.00
2017-07-28T15:09:50.449Z,633.00
2017-07-28T15:10:46.972Z,639.00
2017-07-28T15:11:43.498Z,663.00
2017-07-28T15:12:40.126Z,700.00
2017-07-28T15:14:52.966Z,719.00
2017-07-28T15:15:49.215Z,691.00
2017-07-28T15:16:45.459Z,652.00
2017-07-28T15:17:42.678Z,632.00
2017-07-28T15:18:38.927Z,622.00
2017-07-28T15:19:35.171Z,634.00
2017-07-28T15:20:33.137Z,628.00
2017-07-28T15:21:29.391Z,625.00
2017-07-28T15:22:25.666Z,650.00
2017-07-28T15:23:21.931Z,694.00
2017-07-28T15:24:18.205Z,666.00
2017-07-28T15:25:14.792Z,662.00
2017-07-28T15:26:11.038Z,667.00
2017-07-28T15:27:07.283Z,682.00
2017-07-28T15:28:05.558Z,672.00
2017-07-28T15:29:01.819Z,616.00
2017-07-28T15:29:58.083Z,568.00
2017-07-28T15:30:54.635Z,537.00
2017-07-28T15:31:50.930Z,526.00
2017-07-28T15:32:47.219Z,526.00
2017-07-28T15:33:43.489Z,543.00
2017-07-28T15:34:39.755Z,540.00
2017-07-28T15:35:36.019Z,520.00
2017-07-28T15:36:32.254Z,525.00
2017-07-28T15:37:28.514Z,531.00
2017-07-28T15:38:24.994Z,539.00